sensor_id;sensor_type;location;lat;lon;timestamp;pressure;altitude;pressure_sealevel;temperature;humidity
58967;BME280;44744;51.894;5.080;2022-07-21T00:01:04;101847.54;;;22.06;54.33
58967;BME280;44744;51.894;5.080;2022-07-21T00:02:05;101847.98;;;22.04;54.41
58967;BME280;44744;51.894;5.080;2022-07-21T00:03:05;101842.80;;;22.01;54.47
58967;BME280;44744;51.894;5.080;2022-07-21T00:04:06;101841.12;;;22.00;54.47
58967;BME280;44744;51.894;5.080;2022-07-21T00:05:06;101840.39;;;21.97;54.44
58967;BME280;44744;51.894;5.080;2022-07-21T00:06:07;101841.02;;;21.97;54.67
58967;BME280;44744;51.894;5.080;2022-07-21T00:07:07;101839.20;;;21.97;54.62
58967;BME280;44744;51.894;5.080;2022-07-21T00:08:16;101839.59;;;21.99;54.74
58967;BME280;44744;51.894;5.080;2022-07-21T00:09:16;101837.05;;;22.01;54.73
58967;BME280;44744;51.894;5.080;2022-07-21T00:10:17;101835.89;;;22.00;54.80
58967;BME280;44744;51.894;5.080;2022-07-21T00:11:18;101833.04;;;21.99;54.79
58967;BME280;44744;51.894;5.080;2022-07-21T00:12:19;101832.19;;;21.99;54.78
58967;BME280;44744;51.894;5.080;2022-07-21T00:13:19;101830.36;;;21.99;54.89
58967;BME280;44744;51.894;5.080;2022-07-21T00:14:25;101830.73;;;21.99;55.00
58967;BME280;44744;51.894;5.080;2022-07-21T00:15:27;101829.17;;;21.98;54.93
58967;BME280;44744;51.894;5.080;2022-07-21T00:16:28;101833.23;;;21.99;54.98
58967;BME280;44744;51.894;5.080;2022-07-21T00:17:28;101831.09;;;21.99;55.00
58967;BME280;44744;51.894;5.080;2022-07-21T00:18:28;101831.92;;;21.97;54.88
58967;BME280;44744;51.894;5.080;2022-07-21T00:19:37;101835.90;;;21.95;54.99
58967;BME280;44744;51.894;5.080;2022-07-21T00:20:38;101836.34;;;21.97;55.11
58967;BME280;44744;51.894;5.080;2022-07-21T00:21:38;101834.60;;;21.96;55.10
58967;BME280;44744;51.894;5.080;2022-07-21T00:22:39;101833.85;;;21.96;55.14
58967;BME280;44744;51.894;5.080;2022-07-21T00:23:39;101834.59;;;21.96;55.08
58967;BME280;44744;51.894;5.080;2022-07-21T00:24:40;101833.98;;;21.97;55.02
58967;BME280;44744;51.894;5.080;2022-07-21T00:25:40;101831.35;;;21.98;54.98
58967;BME280;44744;51.894;5.080;2022-07-21T00:26:40;101828.08;;;21.99;55.25
58967;BME280;44744;51.894;5.080;2022-07-21T00:27:41;101829.21;;;22.00;55.29
58967;BME280;44744;51.894;5.080;2022-07-21T00:28:42;101828.08;;;22.01;55.29
58967;BME280;44744;51.894;5.080;2022-07-21T00:29:42;101827.90;;;22.01;55.19
58967;BME280;44744;51.894;5.080;2022-07-21T00:30:44;101823.43;;;22.00;55.12
58967;BME280;44744;51.894;5.080;2022-07-21T00:31:44;101821.77;;;22.01;55.18
58967;BME280;44744;51.894;5.080;2022-07-21T00:32:45;101821.82;;;22.00;55.26
58967;BME280;44744;51.894;5.080;2022-07-21T00:33:45;101820.36;;;21.98;55.30
58967;BME280;44744;51.894;5.080;2022-07-21T00:34:45;101822.02;;;21.97;55.37
58967;BME280;44744;51.894;5.080;2022-07-21T00:35:53;101827.48;;;21.97;55.27
58967;BME280;44744;51.894;5.080;2022-07-21T00:36:53;101829.65;;;21.97;55.35
58967;BME280;44744;51.894;5.080;2022-07-21T00:37:54;101827.94;;;21.96;55.57
58967;BME280;44744;51.894;5.080;2022-07-21T00:38:54;101831.09;;;21.95;55.43
58967;BME280;44744;51.894;5.080;2022-07-21T00:39:55;101829.50;;;21.95;55.53
58967;BME280;44744;51.894;5.080;2022-07-21T00:40:55;101829.90;;;21.94;55.57
58967;BME280;44744;51.894;5.080;2022-07-21T00:41:56;101828.71;;;21.93;55.47
58967;BME280;44744;51.894;5.080;2022-07-21T00:42:56;101829.89;;;21.92;55.58
58967;BME280;44744;51.894;5.080;2022-07-21T00:43:57;101828.29;;;21.92;55.75
58967;BME280;44744;51.894;5.080;2022-07-21T00:44:58;101829.45;;;21.91;55.87
58967;BME280;44744;51.894;5.080;2022-07-21T00:45:58;101825.02;;;21.91;55.89
58967;BME280;44744;51.894;5.080;2022-07-21T00:46:59;101820.34;;;21.88;55.78
58967;BME280;44744;51.894;5.080;2022-07-21T00:47:59;101819.71;;;21.87;55.84
58967;BME280;44744;51.894;5.080;2022-07-21T00:49:00;101819.80;;;21.86;55.94
58967;BME280;44744;51.894;5.080;2022-07-21T00:50:07;101818.36;;;21.86;55.93
58967;BME280;44744;51.894;5.080;2022-07-21T00:51:08;101820.58;;;21.85;55.88
58967;BME280;44744;51.894;5.080;2022-07-21T00:52:08;101822.65;;;21.85;56.02
58967;BME280;44744;51.894;5.080;2022-07-21T00:53:09;101827.60;;;21.85;56.19
58967;BME280;44744;51.894;5.080;2022-07-21T00:54:09;101831.14;;;21.86;56.24
58967;BME280;44744;51.894;5.080;2022-07-21T00:55:15;101830.30;;;21.85;56.13
58967;BME280;44744;51.894;5.080;2022-07-21T00:56:20;101830.25;;;21.86;56.17
58967;BME280;44744;51.894;5.080;2022-07-21T00:57:21;101831.02;;;21.85;56.20
58967;BME280;44744;51.894;5.080;2022-07-21T00:58:22;101828.03;;;21.85;56.08
58967;BME280;44744;51.894;5.080;2022-07-21T00:59:23;101825.29;;;21.85;56.13
58967;BME280;44744;51.894;5.080;2022-07-21T01:00:29;101822.92;;;21.83;56.23
58967;BME280;44744;51.894;5.080;2022-07-21T01:01:30;101815.96;;;21.80;56.30
58967;BME280;44744;51.894;5.080;2022-07-21T01:02:30;101813.07;;;21.78;56.44
58967;BME280;44744;51.894;5.080;2022-07-21T01:03:31;101808.85;;;21.75;56.45
58967;BME280;44744;51.894;5.080;2022-07-21T01:04:31;101804.51;;;21.74;56.57
58967;BME280;44744;51.894;5.080;2022-07-21T01:05:31;101806.98;;;21.74;56.52
58967;BME280;44744;51.894;5.080;2022-07-21T01:06:32;101802.88;;;21.74;56.53
58967;BME280;44744;51.894;5.080;2022-07-21T01:07:32;101803.52;;;21.72;56.61
58967;BME280;44744;51.894;5.080;2022-07-21T01:08:33;101801.34;;;21.73;56.73
58967;BME280;44744;51.894;5.080;2022-07-21T01:09:39;101801.88;;;21.73;56.87
58967;BME280;44744;51.894;5.080;2022-07-21T01:10:39;101800.17;;;21.72;56.99
58967;BME280;44744;51.894;5.080;2022-07-21T01:11:40;101801.11;;;21.71;56.96
58967;BME280;44744;51.894;5.080;2022-07-21T01:12:44;101801.25;;;21.72;57.02
58967;BME280;44744;51.894;5.080;2022-07-21T01:13:44;101800.88;;;21.72;56.97
58967;BME280;44744;51.894;5.080;2022-07-21T01:14:45;101799.09;;;21.72;57.09
58967;BME280;44744;51.894;5.080;2022-07-21T01:15:45;101799.67;;;21.71;57.08
58967;BME280;44744;51.894;5.080;2022-07-21T01:16:46;101800.10;;;21.71;57.14
58967;BME280;44744;51.894;5.080;2022-07-21T01:17:47;101802.19;;;21.69;57.22
58967;BME280;44744;51.894;5.080;2022-07-21T01:18:48;101801.33;;;21.67;57.23
58967;BME280;44744;51.894;5.080;2022-07-21T01:19:48;101806.38;;;21.64;57.28
58967;BME280;44744;51.894;5.080;2022-07-21T01:20:54;101811.52;;;21.65;57.27
58967;BME280;44744;51.894;5.080;2022-07-21T01:21:54;101813.67;;;21.63;57.30
58967;BME280;44744;51.894;5.080;2022-07-21T01:22:55;101817.77;;;21.64;57.35
58967;BME280;44744;51.894;5.080;2022-07-21T01:24:06;101816.88;;;21.62;57.79
58967;BME280;44744;51.894;5.080;2022-07-21T01:25:10;101813.45;;;21.60;57.64
58967;BME280;44744;51.894;5.080;2022-07-21T01:26:11;101811.10;;;21.58;57.69
58967;BME280;44744;51.894;5.080;2022-07-21T01:27:12;101807.33;;;21.58;57.76
58967;BME280;44744;51.894;5.080;2022-07-21T01:28:12;101807.23;;;21.57;57.78
58967;BME280;44744;51.894;5.080;2022-07-21T01:29:13;101804.78;;;21.56;57.67
58967;BME280;44744;51.894;5.080;2022-07-21T01:30:22;101801.59;;;21.55;57.77
58967;BME280;44744;51.894;5.080;2022-07-21T01:31:23;101797.87;;;21.53;57.91
58967;BME280;44744;51.894;5.080;2022-07-21T01:32:23;101797.52;;;21.50;58.06
58967;BME280;44744;51.894;5.080;2022-07-21T01:33:24;101793.44;;;21.48;58.11
58967;BME280;44744;51.894;5.080;2022-07-21T01:34:27;101795.38;;;21.48;58.16
58967;BME280;44744;51.894;5.080;2022-07-21T01:35:28;101789.77;;;21.46;58.16
58967;BME280;44744;51.894;5.080;2022-07-21T01:36:28;101787.96;;;21.44;58.34
58967;BME280;44744;51.894;5.080;2022-07-21T01:37:30;101787.41;;;21.42;58.45
58967;BME280;44744;51.894;5.080;2022-07-21T01:38:31;101788.93;;;21.39;58.53
58967;BME280;44744;51.894;5.080;2022-07-21T01:39:31;101779.27;;;21.36;58.56
58967;BME280;44744;51.894;5.080;2022-07-21T01:40:31;101781.13;;;21.36;58.67
58967;BME280;44744;51.894;5.080;2022-07-21T01:41:32;101783.48;;;21.35;58.61
58967;BME280;44744;51.894;5.080;2022-07-21T01:42:32;101780.15;;;21.35;58.67
58967;BME280;44744;51.894;5.080;2022-07-21T01:43:35;101777.25;;;21.35;58.72
58967;BME280;44744;51.894;5.080;2022-07-21T01:44:35;101786.27;;;21.35;58.83
58967;BME280;44744;51.894;5.080;2022-07-21T01:45:36;101787.13;;;21.33;58.74
58967;BME280;44744;51.894;5.080;2022-07-21T01:46:41;101787.85;;;21.33;58.81
58967;BME280;44744;51.894;5.080;2022-07-21T01:47:43;101789.05;;;21.31;58.91
58967;BME280;44744;51.894;5.080;2022-07-21T01:48:44;101790.36;;;21.31;58.85
58967;BME280;44744;51.894;5.080;2022-07-21T01:49:47;101793.39;;;21.31;58.88
58967;BME280;44744;51.894;5.080;2022-07-21T01:50:48;101787.09;;;21.31;58.81
58967;BME280;44744;51.894;5.080;2022-07-21T01:51:49;101789.80;;;21.30;58.97
58967;BME280;44744;51.894;5.080;2022-07-21T01:52:49;101784.72;;;21.29;58.89
58967;BME280;44744;51.894;5.080;2022-07-21T01:53:51;101786.06;;;21.28;59.06
58967;BME280;44744;51.894;5.080;2022-07-21T01:54:51;101783.23;;;21.28;59.08
58967;BME280;44744;51.894;5.080;2022-07-21T01:55:52;101785.21;;;21.28;59.08
58967;BME280;44744;51.894;5.080;2022-07-21T01:56:52;101781.46;;;21.27;59.14
58967;BME280;44744;51.894;5.080;2022-07-21T01:57:52;101788.06;;;21.28;59.06
58967;BME280;44744;51.894;5.080;2022-07-21T01:58:54;101788.09;;;21.28;59.12
58967;BME280;44744;51.894;5.080;2022-07-21T01:59:55;101788.80;;;21.28;59.24
58967;BME280;44744;51.894;5.080;2022-07-21T02:00:56;101794.33;;;21.28;59.28
58967;BME280;44744;51.894;5.080;2022-07-21T02:01:56;101793.09;;;21.28;59.10
58967;BME280;44744;51.894;5.080;2022-07-21T02:02:56;101790.25;;;21.28;59.19
58967;BME280;44744;51.894;5.080;2022-07-21T02:04:00;101792.66;;;21.27;59.14
58967;BME280;44744;51.894;5.080;2022-07-21T02:05:00;101795.27;;;21.26;59.16
58967;BME280;44744;51.894;5.080;2022-07-21T02:06:04;101794.45;;;21.25;59.34
58967;BME280;44744;51.894;5.080;2022-07-21T02:07:05;101792.05;;;21.23;59.44
58967;BME280;44744;51.894;5.080;2022-07-21T02:08:06;101794.29;;;21.22;59.30
58967;BME280;44744;51.894;5.080;2022-07-21T02:09:06;101790.70;;;21.23;59.30
58967;BME280;44744;51.894;5.080;2022-07-21T02:10:07;101788.58;;;21.22;59.35
58967;BME280;44744;51.894;5.080;2022-07-21T02:11:07;101786.21;;;21.23;59.38
58967;BME280;44744;51.894;5.080;2022-07-21T02:12:08;101786.67;;;21.21;59.51
58967;BME280;44744;51.894;5.080;2022-07-21T02:13:08;101781.52;;;21.20;59.42
58967;BME280;44744;51.894;5.080;2022-07-21T02:14:09;101779.71;;;21.21;59.46
58967;BME280;44744;51.894;5.080;2022-07-21T02:15:09;101780.48;;;21.20;59.54
58967;BME280;44744;51.894;5.080;2022-07-21T02:16:10;101779.65;;;21.19;59.51
58967;BME280;44744;51.894;5.080;2022-07-21T02:17:11;101779.40;;;21.18;59.66
58967;BME280;44744;51.894;5.080;2022-07-21T02:18:11;101784.63;;;21.18;59.62
58967;BME280;44744;51.894;5.080;2022-07-21T02:19:12;101785.11;;;21.17;59.62
58967;BME280;44744;51.894;5.080;2022-07-21T02:20:13;101785.98;;;21.14;59.69
58967;BME280;44744;51.894;5.080;2022-07-21T02:21:13;101787.82;;;21.14;59.71
58967;BME280;44744;51.894;5.080;2022-07-21T02:22:13;101787.95;;;21.12;59.78
58967;BME280;44744;51.894;5.080;2022-07-21T02:23:14;101788.97;;;21.11;59.82
58967;BME280;44744;51.894;5.080;2022-07-21T02:24:15;101789.01;;;21.10;59.85
58967;BME280;44744;51.894;5.080;2022-07-21T02:25:16;101786.02;;;21.10;59.86
58967;BME280;44744;51.894;5.080;2022-07-21T02:26:16;101787.70;;;21.09;59.89
58967;BME280;44744;51.894;5.080;2022-07-21T02:27:17;101784.79;;;21.07;60.08
58967;BME280;44744;51.894;5.080;2022-07-21T02:28:26;101783.54;;;21.07;60.08
58967;BME280;44744;51.894;5.080;2022-07-21T02:29:27;101782.02;;;21.06;59.95
58967;BME280;44744;51.894;5.080;2022-07-21T02:30:27;101779.11;;;21.04;60.09
58967;BME280;44744;51.894;5.080;2022-07-21T02:31:28;101777.37;;;21.02;60.03
58967;BME280;44744;51.894;5.080;2022-07-21T02:32:28;101777.10;;;21.01;60.21
58967;BME280;44744;51.894;5.080;2022-07-21T02:33:28;101774.48;;;20.97;60.12
58967;BME280;44744;51.894;5.080;2022-07-21T02:34:29;101776.95;;;20.96;60.20
58967;BME280;44744;51.894;5.080;2022-07-21T02:35:40;101776.54;;;20.94;60.41
58967;BME280;44744;51.894;5.080;2022-07-21T02:36:40;101778.35;;;20.94;60.55
58967;BME280;44744;51.894;5.080;2022-07-21T02:38:52;101771.55;;;20.90;60.67
58967;BME280;44744;51.894;5.080;2022-07-21T02:39:53;101772.19;;;20.88;60.66
58967;BME280;44744;51.894;5.080;2022-07-21T02:40:54;101767.89;;;20.86;60.84
58967;BME280;44744;51.894;5.080;2022-07-21T02:41:54;101766.70;;;20.85;60.81
58967;BME280;44744;51.894;5.080;2022-07-21T02:42:55;101768.22;;;20.84;60.86
58967;BME280;44744;51.894;5.080;2022-07-21T02:43:55;101763.15;;;20.80;61.02
58967;BME280;44744;51.894;5.080;2022-07-21T02:45:04;101763.70;;;20.78;61.09
58967;BME280;44744;51.894;5.080;2022-07-21T02:46:05;101760.58;;;20.76;61.07
58967;BME280;44744;51.894;5.080;2022-07-21T02:47:05;101757.31;;;20.75;61.18
58967;BME280;44744;51.894;5.080;2022-07-21T02:48:09;101763.72;;;20.73;61.47
58967;BME280;44744;51.894;5.080;2022-07-21T02:49:10;101757.70;;;20.70;61.55
58967;BME280;44744;51.894;5.080;2022-07-21T02:50:10;101762.95;;;20.70;61.44
58967;BME280;44744;51.894;5.080;2022-07-21T02:51:11;101763.23;;;20.69;61.59
58967;BME280;44744;51.894;5.080;2022-07-21T02:52:11;101765.66;;;20.67;61.62
58967;BME280;44744;51.894;5.080;2022-07-21T02:53:14;101769.05;;;20.68;61.66
58967;BME280;44744;51.894;5.080;2022-07-21T02:54:15;101769.08;;;20.67;61.71
58967;BME280;44744;51.894;5.080;2022-07-21T02:55:18;101770.67;;;20.67;61.89
58967;BME280;44744;51.894;5.080;2022-07-21T02:56:19;101769.63;;;20.67;61.90
58967;BME280;44744;51.894;5.080;2022-07-21T02:57:19;101768.35;;;20.67;61.67
58967;BME280;44744;51.894;5.080;2022-07-21T02:58:23;101766.55;;;20.67;61.76
58967;BME280;44744;51.894;5.080;2022-07-21T02:59:24;101764.96;;;20.67;61.86
58967;BME280;44744;51.894;5.080;2022-07-21T03:00:24;101762.86;;;20.69;62.01
58967;BME280;44744;51.894;5.080;2022-07-21T03:01:24;101762.75;;;20.68;61.98
58967;BME280;44744;51.894;5.080;2022-07-21T03:02:25;101760.84;;;20.67;61.85
58967;BME280;44744;51.894;5.080;2022-07-21T03:03:28;101758.89;;;20.66;61.82
58967;BME280;44744;51.894;5.080;2022-07-21T03:04:38;101758.12;;;20.67;62.11
58967;BME280;44744;51.894;5.080;2022-07-21T03:05:39;101755.92;;;20.65;61.98
58967;BME280;44744;51.894;5.080;2022-07-21T03:06:39;101752.53;;;20.63;62.10
58967;BME280;44744;51.894;5.080;2022-07-21T03:07:39;101751.38;;;20.61;62.26
58967;BME280;44744;51.894;5.080;2022-07-21T03:08:40;101752.55;;;20.60;62.45
58967;BME280;44744;51.894;5.080;2022-07-21T03:09:40;101746.34;;;20.59;62.44
58967;BME280;44744;51.894;5.080;2022-07-21T03:10:41;101751.48;;;20.60;62.50
58967;BME280;44744;51.894;5.080;2022-07-21T03:11:41;101754.73;;;20.60;62.37
58967;BME280;44744;51.894;5.080;2022-07-21T03:12:41;101751.92;;;20.59;62.51
58967;BME280;44744;51.894;5.080;2022-07-21T03:13:44;101751.77;;;20.59;62.60
58967;BME280;44744;51.894;5.080;2022-07-21T03:14:45;101755.17;;;20.59;62.64
58967;BME280;44744;51.894;5.080;2022-07-21T03:15:45;101752.09;;;20.59;62.86
58967;BME280;44744;51.894;5.080;2022-07-21T03:16:46;101755.23;;;20.58;62.80
58967;BME280;44744;51.894;5.080;2022-07-21T03:17:46;101752.95;;;20.58;62.85
58967;BME280;44744;51.894;5.080;2022-07-21T03:18:46;101754.37;;;20.58;62.79
58967;BME280;44744;51.894;5.080;2022-07-21T03:19:47;101761.80;;;20.57;62.92
58967;BME280;44744;51.894;5.080;2022-07-21T03:20:47;101763.30;;;20.56;62.78
58967;BME280;44744;51.894;5.080;2022-07-21T03:21:48;101759.73;;;20.56;62.85
58967;BME280;44744;51.894;5.080;2022-07-21T03:22:48;101761.15;;;20.56;62.85
58967;BME280;44744;51.894;5.080;2022-07-21T03:23:51;101763.48;;;20.56;62.87
58967;BME280;44744;51.894;5.080;2022-07-21T03:24:51;101763.75;;;20.55;62.94
58967;BME280;44744;51.894;5.080;2022-07-21T03:25:52;101770.20;;;20.56;62.97
58967;BME280;44744;51.894;5.080;2022-07-21T03:26:53;101769.14;;;20.55;63.08
58967;BME280;44744;51.894;5.080;2022-07-21T03:27:53;101768.21;;;20.54;63.10
58967;BME280;44744;51.894;5.080;2022-07-21T03:28:54;101772.49;;;20.54;63.08
58967;BME280;44744;51.894;5.080;2022-07-21T03:29:54;101773.11;;;20.51;63.15
58967;BME280;44744;51.894;5.080;2022-07-21T03:30:54;101767.52;;;20.49;63.03
58967;BME280;44744;51.894;5.080;2022-07-21T03:31:55;101772.39;;;20.49;63.23
58967;BME280;44744;51.894;5.080;2022-07-21T03:32:55;101767.34;;;20.46;63.31
58967;BME280;44744;51.894;5.080;2022-07-21T03:33:56;101767.77;;;20.45;63.19
58967;BME280;44744;51.894;5.080;2022-07-21T03:34:56;101768.52;;;20.45;63.12
58967;BME280;44744;51.894;5.080;2022-07-21T03:35:57;101772.50;;;20.45;63.19
58967;BME280;44744;51.894;5.080;2022-07-21T03:36:57;101773.45;;;20.44;63.36
58967;BME280;44744;51.894;5.080;2022-07-21T03:37:59;101773.04;;;20.43;63.21
58967;BME280;44744;51.894;5.080;2022-07-21T03:39:00;101772.99;;;20.41;63.44
58967;BME280;44744;51.894;5.080;2022-07-21T03:40:06;101770.36;;;20.40;63.35
58967;BME280;44744;51.894;5.080;2022-07-21T03:41:06;101768.44;;;20.40;63.38
58967;BME280;44744;51.894;5.080;2022-07-21T03:42:07;101770.36;;;20.40;63.28
58967;BME280;44744;51.894;5.080;2022-07-21T03:43:07;101770.04;;;20.40;63.37
58967;BME280;44744;51.894;5.080;2022-07-21T03:44:11;101770.70;;;20.41;63.21
58967;BME280;44744;51.894;5.080;2022-07-21T03:45:11;101771.23;;;20.41;63.31
58967;BME280;44744;51.894;5.080;2022-07-21T03:46:12;101771.75;;;20.41;63.53
58967;BME280;44744;51.894;5.080;2022-07-21T03:47:12;101770.52;;;20.41;63.54
58967;BME280;44744;51.894;5.080;2022-07-21T03:48:12;101775.58;;;20.40;63.61
58967;BME280;44744;51.894;5.080;2022-07-21T03:49:13;101770.89;;;20.40;63.60
58967;BME280;44744;51.894;5.080;2022-07-21T03:50:14;101769.32;;;20.42;63.56
58967;BME280;44744;51.894;5.080;2022-07-21T03:51:14;101768.23;;;20.42;63.71
58967;BME280;44744;51.894;5.080;2022-07-21T03:52:14;101767.29;;;20.43;63.84
58967;BME280;44744;51.894;5.080;2022-07-21T03:53:15;101765.54;;;20.42;63.68
58967;BME280;44744;51.894;5.080;2022-07-21T03:54:15;101764.27;;;20.42;63.61
58967;BME280;44744;51.894;5.080;2022-07-21T03:55:15;101764.08;;;20.42;63.68
58967;BME280;44744;51.894;5.080;2022-07-21T03:56:16;101760.62;;;20.43;63.64
58967;BME280;44744;51.894;5.080;2022-07-21T03:57:16;101759.20;;;20.43;63.57
58967;BME280;44744;51.894;5.080;2022-07-21T03:58:16;101762.19;;;20.44;63.68
58967;BME280;44744;51.894;5.080;2022-07-21T03:59:17;101762.75;;;20.43;63.62
58967;BME280;44744;51.894;5.080;2022-07-21T04:01:21;101765.34;;;20.40;63.75
58967;BME280;44744;51.894;5.080;2022-07-21T04:02:22;101764.92;;;20.39;63.67
58967;BME280;44744;51.894;5.080;2022-07-21T04:03:22;101766.19;;;20.39;63.75
58967;BME280;44744;51.894;5.080;2022-07-21T04:04:22;101767.42;;;20.37;63.95
58967;BME280;44744;51.894;5.080;2022-07-21T04:05:23;101767.17;;;20.36;63.99
58967;BME280;44744;51.894;5.080;2022-07-21T04:06:24;101771.70;;;20.33;63.92
58967;BME280;44744;51.894;5.080;2022-07-21T04:07:24;101768.91;;;20.32;64.03
58967;BME280;44744;51.894;5.080;2022-07-21T04:08:25;101768.42;;;20.29;64.08
58967;BME280;44744;51.894;5.080;2022-07-21T04:09:25;101773.02;;;20.27;64.02
58967;BME280;44744;51.894;5.080;2022-07-21T04:10:28;101775.02;;;20.27;64.12
58967;BME280;44744;51.894;5.080;2022-07-21T04:11:28;101777.88;;;20.27;64.12
58967;BME280;44744;51.894;5.080;2022-07-21T04:12:29;101778.81;;;20.27;64.08
58967;BME280;44744;51.894;5.080;2022-07-21T04:13:29;101780.33;;;20.26;64.19
58967;BME280;44744;51.894;5.080;2022-07-21T04:14:29;101777.38;;;20.23;64.18
58967;BME280;44744;51.894;5.080;2022-07-21T04:15:30;101777.55;;;20.20;64.36
58967;BME280;44744;51.894;5.080;2022-07-21T04:16:30;101780.77;;;20.19;64.35
58967;BME280;44744;51.894;5.080;2022-07-21T04:17:31;101774.98;;;20.17;64.54
58967;BME280;44744;51.894;5.080;2022-07-21T04:18:31;101779.45;;;20.15;64.58
58967;BME280;44744;51.894;5.080;2022-07-21T04:19:32;101776.44;;;20.12;64.50
58967;BME280;44744;51.894;5.080;2022-07-21T04:20:33;101775.60;;;20.09;64.55
58967;BME280;44744;51.894;5.080;2022-07-21T04:21:33;101772.88;;;20.07;64.73
58967;BME280;44744;51.894;5.080;2022-07-21T04:22:34;101775.76;;;20.05;64.63
58967;BME280;44744;51.894;5.080;2022-07-21T04:23:35;101773.60;;;20.03;64.75
58967;BME280;44744;51.894;5.080;2022-07-21T04:24:35;101771.95;;;20.01;65.04
58967;BME280;44744;51.894;5.080;2022-07-21T04:25:35;101773.83;;;19.98;65.05
58967;BME280;44744;51.894;5.080;2022-07-21T04:26:36;101773.09;;;19.95;65.10
58967;BME280;44744;51.894;5.080;2022-07-21T04:27:40;101774.59;;;19.95;65.05
58967;BME280;44744;51.894;5.080;2022-07-21T04:28:40;101776.38;;;19.95;65.04
58967;BME280;44744;51.894;5.080;2022-07-21T04:29:41;101775.95;;;19.96;65.19
58967;BME280;44744;51.894;5.080;2022-07-21T04:30:41;101776.54;;;19.95;65.37
58967;BME280;44744;51.894;5.080;2022-07-21T04:31:42;101774.96;;;19.92;65.14
58967;BME280;44744;51.894;5.080;2022-07-21T04:32:50;101775.08;;;19.91;65.15
58967;BME280;44744;51.894;5.080;2022-07-21T04:33:51;101773.17;;;19.90;65.36
58967;BME280;44744;51.894;5.080;2022-07-21T04:34:51;101772.42;;;19.88;65.42
58967;BME280;44744;51.894;5.080;2022-07-21T04:35:51;101771.70;;;19.86;65.33
58967;BME280;44744;51.894;5.080;2022-07-21T04:36:52;101773.88;;;19.86;65.32
58967;BME280;44744;51.894;5.080;2022-07-21T04:37:52;101774.55;;;19.84;65.38
58967;BME280;44744;51.894;5.080;2022-07-21T04:38:52;101776.14;;;19.85;65.22
58967;BME280;44744;51.894;5.080;2022-07-21T04:39:53;101777.23;;;19.86;65.23
58967;BME280;44744;51.894;5.080;2022-07-21T04:40:53;101775.86;;;19.88;65.25
58967;BME280;44744;51.894;5.080;2022-07-21T04:41:53;101776.23;;;19.88;65.34
58967;BME280;44744;51.894;5.080;2022-07-21T04:42:54;101773.23;;;19.87;65.10
58967;BME280;44744;51.894;5.080;2022-07-21T04:43:54;101775.36;;;19.88;65.04
58967;BME280;44744;51.894;5.080;2022-07-21T04:44:54;101774.33;;;19.89;65.32
58967;BME280;44744;51.894;5.080;2022-07-21T04:45:55;101771.87;;;19.88;65.08
58967;BME280;44744;51.894;5.080;2022-07-21T04:47:17;101775.02;;;19.89;65.06
58967;BME280;44744;51.894;5.080;2022-07-21T04:48:26;101774.51;;;19.91;65.13
58967;BME280;44744;51.894;5.080;2022-07-21T04:49:27;101769.52;;;19.89;65.03
58967;BME280;44744;51.894;5.080;2022-07-21T04:50:27;101772.15;;;19.87;65.09
58967;BME280;44744;51.894;5.080;2022-07-21T04:51:28;101773.83;;;19.86;64.99
58967;BME280;44744;51.894;5.080;2022-07-21T04:52:28;101769.47;;;19.87;64.88
58967;BME280;44744;51.894;5.080;2022-07-21T04:53:28;101770.14;;;19.88;64.97
58967;BME280;44744;51.894;5.080;2022-07-21T04:54:32;101767.27;;;19.87;65.00
58967;BME280;44744;51.894;5.080;2022-07-21T04:55:32;101770.63;;;19.88;65.03
58967;BME280;44744;51.894;5.080;2022-07-21T04:56:33;101767.45;;;19.88;65.05
58967;BME280;44744;51.894;5.080;2022-07-21T04:57:40;101768.64;;;19.86;65.09
58967;BME280;44744;51.894;5.080;2022-07-21T04:58:41;101769.94;;;19.86;65.13
58967;BME280;44744;51.894;5.080;2022-07-21T04:59:41;101768.86;;;19.83;65.14
58967;BME280;44744;51.894;5.080;2022-07-21T05:00:42;101770.36;;;19.85;65.12
58967;BME280;44744;51.894;5.080;2022-07-21T05:01:42;101772.80;;;19.86;65.14
58967;BME280;44744;51.894;5.080;2022-07-21T05:02:43;101775.09;;;19.86;64.98
58967;BME280;44744;51.894;5.080;2022-07-21T05:03:45;101769.46;;;19.87;65.13
58967;BME280;44744;51.894;5.080;2022-07-21T05:04:46;101775.81;;;19.88;65.16
58967;BME280;44744;51.894;5.080;2022-07-21T05:05:46;101774.17;;;19.89;65.16
58967;BME280;44744;51.894;5.080;2022-07-21T05:06:46;101776.71;;;19.91;65.07
58967;BME280;44744;51.894;5.080;2022-07-21T05:07:47;101778.25;;;19.94;65.07
58967;BME280;44744;51.894;5.080;2022-07-21T05:08:47;101777.65;;;19.95;64.99
58967;BME280;44744;51.894;5.080;2022-07-21T05:09:58;101778.52;;;19.97;65.13
58967;BME280;44744;51.894;5.080;2022-07-21T05:10:58;101780.71;;;19.99;65.02
58967;BME280;44744;51.894;5.080;2022-07-21T05:11:58;101781.20;;;20.00;64.97
58967;BME280;44744;51.894;5.080;2022-07-21T05:12:59;101778.15;;;20.02;64.92
58967;BME280;44744;51.894;5.080;2022-07-21T05:13:59;101780.43;;;20.02;64.83
58967;BME280;44744;51.894;5.080;2022-07-21T05:15:00;101777.92;;;20.03;65.08
58967;BME280;44744;51.894;5.080;2022-07-21T05:16:00;101777.56;;;20.00;64.97
58967;BME280;44744;51.894;5.080;2022-07-21T05:17:01;101777.45;;;19.99;65.16
58967;BME280;44744;51.894;5.080;2022-07-21T05:18:01;101779.65;;;19.97;65.11
58967;BME280;44744;51.894;5.080;2022-07-21T05:19:01;101778.45;;;19.96;64.99
58967;BME280;44744;51.894;5.080;2022-07-21T05:20:03;101778.07;;;19.96;64.97
58967;BME280;44744;51.894;5.080;2022-07-21T05:21:04;101779.16;;;19.98;65.03
58967;BME280;44744;51.894;5.080;2022-07-21T05:22:04;101776.17;;;20.00;65.10
58967;BME280;44744;51.894;5.080;2022-07-21T05:23:04;101775.51;;;20.01;65.10